sensor_id;sensor_type;location;lat;lon;timestamp;pressure;altitude;pressure_sealevel;temperature;humidity
2685;BME280;1352;48.446;9.156;2023-08-30T00:01:10;94755.28;;;16.65;100.00
2685;BME280;1352;48.446;9.156;2023-08-30T00:03:37;94754.81;;;16.76;100.00
2685;BME280;1352;48.446;9.156;2023-08-30T00:06:04;94762.06;;;16.74;100.00
2685;BME280;1352;48.446;9.156;2023-08-30T00:08:31;94762.81;;;16.89;100.00
2685;BME280;1352;48.446;9.156;2023-08-30T00:10:58;94760.91;;;16.98;100.00
2685;BME280;1352;48.446;9.156;2023-08-30T00:13:24;94760.50;;;17.01;100.00
2685;BME280;1352;48.446;9.156;2023-08-30T00:15:51;94750.16;;;16.78;100.00
2685;BME280;1352;48.446;9.156;2023-08-30T00:18:19;94751.03;;;16.64;100.00
2685;BME280;1352;48.446;9.156;2023-08-30T00:20:46;94747.91;;;16.96;100.00
2685;BME280;1352;48.446;9.156;2023-08-30T00:23:13;94754.22;;;16.81;100.00
2685;BME280;1352;48.446;9.156;2023-08-30T00:25:40;94748.72;;;16.76;100.00
2685;BME280;1352;48.446;9.156;2023-08-30T00:28:06;94751.69;;;16.87;100.00
2685;BME280;1352;48.446;9.156;2023-08-30T00:30:33;94753.81;;;16.77;100.00
2685;BME280;1352;48.446;9.156;2023-08-30T00:33:00;94753.38;;;16.95;100.00
2685;BME280;1352;48.446;9.156;2023-08-30T00:35:28;94757.25;;;16.78;100.00
2685;BME280;1352;48.446;9.156;2023-08-30T00:37:55;94749.31;;;16.99;100.00
2685;BME280;1352;48.446;9.156;2023-08-30T00:40:22;94748.97;;;17.02;100.00
2685;BME280;1352;48.446;9.156;2023-08-30T00:42:49;94746.47;;;16.94;100.00
2685;BME280;1352;48.446;9.156;2023-08-30T00:45:16;94738.56;;;16.94;100.00
2685;BME280;1352;48.446;9.156;2023-08-30T00:47:42;94734.91;;;16.73;100.00
2685;BME280;1352;48.446;9.156;2023-08-30T00:50:09;94734.84;;;16.67;100.00
2685;BME280;1352;48.446;9.156;2023-08-30T00:52:38;94724.94;;;16.69;100.00
2685;BME280;1352;48.446;9.156;2023-08-30T00:55:05;94719.25;;;16.51;100.00
2685;BME280;1352;48.446;9.156;2023-08-30T00:57:32;94721.69;;;16.52;100.00
2685;BME280;1352;48.446;9.156;2023-08-30T00:59:59;94717.75;;;16.42;100.00
2685;BME280;1352;48.446;9.156;2023-08-30T01:02:26;94720.31;;;16.56;100.00
2685;BME280;1352;48.446;9.156;2023-08-30T01:04:53;94703.69;;;16.56;100.00
2685;BME280;1352;48.446;9.156;2023-08-30T01:07:19;94698.38;;;16.49;100.00
2685;BME280;1352;48.446;9.156;2023-08-30T01:09:47;94693.53;;;16.31;100.00
2685;BME280;1352;48.446;9.156;2023-08-30T01:12:16;94690.44;;;16.28;100.00
2685;BME280;1352;48.446;9.156;2023-08-30T01:14:49;94689.63;;;16.27;100.00
2685;BME280;1352;48.446;9.156;2023-08-30T01:17:19;94681.06;;;16.40;100.00
2685;BME280;1352;48.446;9.156;2023-08-30T01:19:48;94681.06;;;16.40;100.00
2685;BME280;1352;48.446;9.156;2023-08-30T01:22:18;94679.25;;;16.41;100.00
2685;BME280;1352;48.446;9.156;2023-08-30T01:24:54;94692.97;;;16.36;100.00
2685;BME280;1352;48.446;9.156;2023-08-30T01:27:25;94694.44;;;16.24;100.00
2685;BME280;1352;48.446;9.156;2023-08-30T01:29:52;94693.00;;;16.21;100.00
2685;BME280;1352;48.446;9.156;2023-08-30T01:32:20;94699.28;;;16.20;100.00
2685;BME280;1352;48.446;9.156;2023-08-30T01:34:50;94693.53;;;16.31;100.00
2685;BME280;1352;48.446;9.156;2023-08-30T01:37:17;94687.22;;;16.47;100.00
2685;BME280;1352;48.446;9.156;2023-08-30T01:39:45;94686.50;;;16.38;99.35
2685;BME280;1352;48.446;9.156;2023-08-30T01:42:12;94689.81;;;16.26;100.00
2685;BME280;1352;48.446;9.156;2023-08-30T01:44:42;94690.44;;;16.28;100.00
2685;BME280;1352;48.446;9.156;2023-08-30T01:47:10;94682.66;;;16.20;100.00
2685;BME280;1352;48.446;9.156;2023-08-30T01:49:38;94684.88;;;16.02;100.00
2685;BME280;1352;48.446;9.156;2023-08-30T01:52:05;94682.78;;;16.12;100.00
2685;BME280;1352;48.446;9.156;2023-08-30T01:54:32;94682.78;;;15.97;100.00
2685;BME280;1352;48.446;9.156;2023-08-30T01:56:59;94688.47;;;15.65;100.00
2685;BME280;1352;48.446;9.156;2023-08-30T01:59:26;94690.66;;;15.76;100.00
2685;BME280;1352;48.446;9.156;2023-08-30T02:01:54;94694.78;;;15.99;100.00
2685;BME280;1352;48.446;9.156;2023-08-30T02:04:21;94691.53;;;15.68;100.00
2685;BME280;1352;48.446;9.156;2023-08-30T02:06:50;94692.88;;;15.79;100.00
2685;BME280;1352;48.446;9.156;2023-08-30T02:09:21;94688.91;;;15.83;100.00
2685;BME280;1352;48.446;9.156;2023-08-30T02:11:50;94688.22;;;15.95;100.00
2685;BME280;1352;48.446;9.156;2023-08-30T02:14:19;94692.44;;;15.90;100.00
2685;BME280;1352;48.446;9.156;2023-08-30T02:16:46;94698.97;;;15.94;100.00
2685;BME280;1352;48.446;9.156;2023-08-30T02:19:15;94690.78;;;16.04;100.00
2685;BME280;1352;48.446;9.156;2023-08-30T02:21:46;94695.47;;;16.23;100.00
2685;BME280;1352;48.446;9.156;2023-08-30T02:24:13;94697.56;;;16.13;100.00
2685;BME280;1352;48.446;9.156;2023-08-30T02:26:39;94690.72;;;15.82;100.00
2685;BME280;1352;48.446;9.156;2023-08-30T02:29:06;94698.50;;;15.90;100.00
2685;BME280;1352;48.446;9.156;2023-08-30T02:31:33;94697.59;;;15.98;100.00
2685;BME280;1352;48.446;9.156;2023-08-30T02:34:00;94688.34;;;16.02;100.00
2685;BME280;1352;48.446;9.156;2023-08-30T02:36:29;94687.66;;;16.15;100.00
2685;BME280;1352;48.446;9.156;2023-08-30T02:38:55;94693.13;;;16.13;100.00
2685;BME280;1352;48.446;9.156;2023-08-30T02:41:22;94695.13;;;16.32;100.00
2685;BME280;1352;48.446;9.156;2023-08-30T02:43:49;94695.25;;;16.24;100.00
2685;BME280;1352;48.446;9.156;2023-08-30T02:46:15;94695.75;;;16.13;100.00
2685;BME280;1352;48.446;9.156;2023-08-30T02:48:42;94701.63;;;16.15;100.00
2685;BME280;1352;48.446;9.156;2023-08-30T02:51:09;94701.50;;;16.23;100.00
2685;BME280;1352;48.446;9.156;2023-08-30T02:53:37;94702.84;;;16.34;100.00
2685;BME280;1352;48.446;9.156;2023-08-30T02:56:04;94695.09;;;16.47;100.00
2685;BME280;1352;48.446;9.156;2023-08-30T02:58:30;94706.06;;;16.29;100.00
2685;BME280;1352;48.446;9.156;2023-08-30T03:00:57;94701.09;;;16.20;100.00
2685;BME280;1352;48.446;9.156;2023-08-30T03:03:24;94698.88;;;16.23;100.00
2685;BME280;1352;48.446;9.156;2023-08-30T03:05:50;94708.25;;;16.26;100.00
2685;BME280;1352;48.446;9.156;2023-08-30T03:08:17;94704.50;;;16.35;100.00
2685;BME280;1352;48.446;9.156;2023-08-30T03:10:46;94704.16;;;16.23;100.00
2685;BME280;1352;48.446;9.156;2023-08-30T03:13:12;94701.78;;;16.28;100.00
2685;BME280;1352;48.446;9.156;2023-08-30T03:15:39;94702.16;;;16.25;100.00
2685;BME280;1352;48.446;9.156;2023-08-30T03:18:06;94695.53;;;16.29;100.00
2685;BME280;1352;48.446;9.156;2023-08-30T03:20:33;94697.47;;;16.21;100.00
2685;BME280;1352;48.446;9.156;2023-08-30T03:23:00;94693.25;;;16.26;100.00
2685;BME280;1352;48.446;9.156;2023-08-30T03:25:28;94695.81;;;16.20;100.00
2685;BME280;1352;48.446;9.156;2023-08-30T03:27:57;94688.28;;;16.17;100.00
2685;BME280;1352;48.446;9.156;2023-08-30T03:30:23;94682.84;;;16.18;100.00
2685;BME280;1352;48.446;9.156;2023-08-30T03:32:50;94682.03;;;16.18;100.00
2685;BME280;1352;48.446;9.156;2023-08-30T03:35:17;94683.53;;;16.42;100.00
2685;BME280;1352;48.446;9.156;2023-08-30T03:37:46;94681.66;;;16.21;100.00
2685;BME280;1352;48.446;9.156;2023-08-30T03:40:13;94688.75;;;16.20;100.00
2685;BME280;1352;48.446;9.156;2023-08-30T03:42:40;94675.50;;;16.14;100.00
2685;BME280;1352;48.446;9.156;2023-08-30T03:45:09;94684.31;;;16.21;100.00
2685;BME280;1352;48.446;9.156;2023-08-30T03:47:36;94684.00;;;16.30;100.00
2685;BME280;1352;48.446;9.156;2023-08-30T03:50:03;94688.00;;;16.26;100.00
2685;BME280;1352;48.446;9.156;2023-08-30T03:52:30;94688.19;;;16.25;100.00
2685;BME280;1352;48.446;9.156;2023-08-30T03:54:57;94689.56;;;16.21;100.00
2685;BME280;1352;48.446;9.156;2023-08-30T03:57:24;94686.69;;;16.01;100.00
2685;BME280;1352;48.446;9.156;2023-08-30T03:59:51;94681.97;;;15.96;100.00
2685;BME280;1352;48.446;9.156;2023-08-30T04:02:20;94685.25;;;15.98;100.00
2685;BME280;1352;48.446;9.156;2023-08-30T04:04:47;94688.34;;;16.23;100.00
2685;BME280;1352;48.446;9.156;2023-08-30T04:07:14;94686.66;;;16.16;100.00
2685;BME280;1352;48.446;9.156;2023-08-30T04:09:41;94692.03;;;16.08;100.00
2685;BME280;1352;48.446;9.156;2023-08-30T04:12:07;94685.88;;;16.00;100.00
2685;BME280;1352;48.446;9.156;2023-08-30T04:14:34;94685.72;;;15.87;100.00
2685;BME280;1352;48.446;9.156;2023-08-30T04:17:01;94675.59;;;16.06;100.00
2685;BME280;1352;48.446;9.156;2023-08-30T04:19:30;94679.75;;;16.15;100.00
2685;BME280;1352;48.446;9.156;2023-08-30T04:21:57;94684.78;;;16.10;100.00
2685;BME280;1352;48.446;9.156;2023-08-30T04:24:23;94688.97;;;16.04;100.00
2685;BME280;1352;48.446;9.156;2023-08-30T04:26:50;94688.34;;;16.02;100.00
2685;BME280;1352;48.446;9.156;2023-08-30T04:29:20;94685.88;;;16.00;100.00
2685;BME280;1352;48.446;9.156;2023-08-30T04:31:46;94693.97;;;15.99;100.00
2685;BME280;1352;48.446;9.156;2023-08-30T04:34:13;94692.66;;;16.10;100.00
2685;BME280;1352;48.446;9.156;2023-08-30T04:36:43;94694.78;;;15.99;100.00
2685;BME280;1352;48.446;9.156;2023-08-30T04:39:09;94692.09;;;16.14;100.00
2685;BME280;1352;48.446;9.156;2023-08-30T04:41:36;94696.66;;;16.20;100.00
2685;BME280;1352;48.446;9.156;2023-08-30T04:44:03;94696.16;;;16.31;100.00
2685;BME280;1352;48.446;9.156;2023-08-30T04:46:30;94689.94;;;16.18;100.00
2685;BME280;1352;48.446;9.156;2023-08-30T04:48:57;94690.63;;;15.90;100.00
2685;BME280;1352;48.446;9.156;2023-08-30T04:51:24;94693.13;;;15.98;100.00
2685;BME280;1352;48.446;9.156;2023-08-30T04:53:53;94683.53;;;15.91;100.00
2685;BME280;1352;48.446;9.156;2023-08-30T04:56:20;94690.34;;;15.85;100.00
2685;BME280;1352;48.446;9.156;2023-08-30T04:58:46;94684.66;;;15.82;100.00
2685;BME280;1352;48.446;9.156;2023-08-30T05:01:14;94683.75;;;15.75;100.00
2685;BME280;1352;48.446;9.156;2023-08-30T05:03:41;94679.44;;;15.88;100.00
2685;BME280;1352;48.446;9.156;2023-08-30T05:06:08;94678.06;;;16.07;100.00
2685;BME280;1352;48.446;9.156;2023-08-30T05:08:35;94680.34;;;15.95;100.00
2685;BME280;1352;48.446;9.156;2023-08-30T05:11:03;94673.88;;;16.13;100.00
2685;BME280;1352;48.446;9.156;2023-08-30T05:13:30;94681.00;;;15.83;100.00
2685;BME280;1352;48.446;9.156;2023-08-30T05:15:57;94673.13;;;16.19;100.00
2685;BME280;1352;48.446;9.156;2023-08-30T05:18:24;94670.44;;;16.12;100.00
2685;BME280;1352;48.446;9.156;2023-08-30T05:20:51;94671.50;;;16.18;100.00
2685;BME280;1352;48.446;9.156;2023-08-30T05:23:17;94671.38;;;16.26;100.00
2685;BME280;1352;48.446;9.156;2023-08-30T05:25:44;94678.44;;;16.40;100.00
2685;BME280;1352;48.446;9.156;2023-08-30T05:28:13;94677.69;;;16.46;100.00
2685;BME280;1352;48.446;9.156;2023-08-30T05:30:41;94676.72;;;16.54;100.00
2685;BME280;1352;48.446;9.156;2023-08-30T05:33:08;94673.41;;;16.45;100.00
2685;BME280;1352;48.446;9.156;2023-08-30T05:35:34;94674.59;;;16.43;100.00
2685;BME280;1352;48.446;9.156;2023-08-30T05:38:01;94671.22;;;16.49;100.00
2685;BME280;1352;48.446;9.156;2023-08-30T05:40:28;94679.00;;;16.57;100.00
2685;BME280;1352;48.446;9.156;2023-08-30T05:42:55;94675.19;;;16.59;100.00
2685;BME280;1352;48.446;9.156;2023-08-30T05:45:24;94676.00;;;16.60;100.00
2685;BME280;1352;48.446;9.156;2023-08-30T05:47:51;94678.50;;;16.47;100.00
2685;BME280;1352;48.446;9.156;2023-08-30T05:50:17;94678.00;;;16.58;100.00
2685;BME280;1352;48.446;9.156;2023-08-30T05:52:44;94681.28;;;16.60;100.00
2685;BME280;1352;48.446;9.156;2023-08-30T05:55:11;94682.75;;;16.48;100.00
2685;BME280;1352;48.446;9.156;2023-08-30T05:57:38;94676.22;;;16.44;100.00
2685;BME280;1352;48.446;9.156;2023-08-30T06:00:05;94675.63;;;16.42;100.00
2685;BME280;1352;48.446;9.156;2023-08-30T06:02:35;94685.03;;;16.51;100.00
2685;BME280;1352;48.446;9.156;2023-08-30T06:05:02;94681.56;;;16.50;100.00
2685;BME280;1352;48.446;9.156;2023-08-30T06:07:29;94692.22;;;16.78;100.00
2685;BME280;1352;48.446;9.156;2023-08-30T06:09:56;94684.22;;;16.93;100.00
2685;BME280;1352;48.446;9.156;2023-08-30T06:12:23;94689.66;;;16.91;100.00
2685;BME280;1352;48.446;9.156;2023-08-30T06:14:50;94687.66;;;16.72;100.00
2685;BME280;1352;48.446;9.156;2023-08-30T06:17:17;94686.03;;;16.71;100.00
2685;BME280;1352;48.446;9.156;2023-08-30T06:19:46;94690.63;;;16.84;100.00
2685;BME280;1352;48.446;9.156;2023-08-30T06:22:13;94693.41;;;16.61;100.00
2685;BME280;1352;48.446;9.156;2023-08-30T06:24:40;94688.50;;;16.72;100.00
2685;BME280;1352;48.446;9.156;2023-08-30T06:27:07;94692.44;;;16.83;100.00
2685;BME280;1352;48.446;9.156;2023-08-30T06:29:34;94693.69;;;16.66;100.00
2685;BME280;1352;48.446;9.156;2023-08-30T06:32:01;94693.75;;;16.72;100.00
2685;BME280;1352;48.446;9.156;2023-08-30T06:34:27;94701.44;;;16.89;100.00
2685;BME280;1352;48.446;9.156;2023-08-30T06:36:56;94698.97;;;16.66;100.00
2685;BME280;1352;48.446;9.156;2023-08-30T06:39:23;94708.47;;;16.46;100.00
2685;BME280;1352;48.446;9.156;2023-08-30T06:41:50;94706.28;;;16.49;100.00
2685;BME280;1352;48.446;9.156;2023-08-30T06:44:17;94704.75;;;16.76;100.00
2685;BME280;1352;48.446;9.156;2023-08-30T06:46:43;94704.47;;;16.50;100.00
2685;BME280;1352;48.446;9.156;2023-08-30T06:49:10;94706.91;;;16.51;100.00
2685;BME280;1352;48.446;9.156;2023-08-30T06:51:37;94709.88;;;16.63;100.00
2685;BME280;1352;48.446;9.156;2023-08-30T06:54:05;94703.59;;;16.64;100.00
2685;BME280;1352;48.446;9.156;2023-08-30T06:56:32;94700.34;;;16.83;100.00
2685;BME280;1352;48.446;9.156;2023-08-30T06:58:59;94698.03;;;16.73;100.00
2685;BME280;1352;48.446;9.156;2023-08-30T07:01:26;94697.28;;;16.80;100.00
2685;BME280;1352;48.446;9.156;2023-08-30T07:03:53;94685.97;;;16.86;100.00
2685;BME280;1352;48.446;9.156;2023-08-30T07:06:20;94687.66;;;16.72;100.00
2685;BME280;1352;48.446;9.156;2023-08-30T07:08:47;94687.44;;;16.88;100.00
2685;BME280;1352;48.446;9.156;2023-08-30T07:11:15;94690.47;;;17.13;100.00
2685;BME280;1352;48.446;9.156;2023-08-30T07:13:42;94680.47;;;17.36;100.00
2685;BME280;1352;48.446;9.156;2023-08-30T07:16:09;94684.00;;;17.43;100.00
2685;BME280;1352;48.446;9.156;2023-08-30T07:18:36;94689.94;;;17.52;100.00
2685;BME280;1352;48.446;9.156;2023-08-30T07:21:04;94688.91;;;17.81;100.00
2685;BME280;1352;48.446;9.156;2023-08-30T07:23:31;94692.13;;;18.24;100.00
2685;BME280;1352;48.446;9.156;2023-08-30T07:25:58;94681.19;;;18.34;99.72
2685;BME280;1352;48.446;9.156;2023-08-30T07:28:26;94686.63;;;18.19;96.36
2685;BME280;1352;48.446;9.156;2023-08-30T07:31:01;94687.91;;;18.36;97.37
2685;BME280;1352;48.446;9.156;2023-08-30T07:33:28;94689.72;;;18.36;96.02
2685;BME280;1352;48.446;9.156;2023-08-30T07:35:55;94690.47;;;18.90;100.00
2685;BME280;1352;48.446;9.156;2023-08-30T07:38:22;94684.56;;;19.08;87.93
2685;BME280;1352;48.446;9.156;2023-08-30T07:40:49;94682.34;;;19.05;89.08
2685;BME280;1352;48.446;9.156;2023-08-30T07:43:15;94688.22;;;19.07;87.25
2685;BME280;1352;48.446;9.156;2023-08-30T07:45:44;94688.03;;;19.02;88.01
2685;BME280;1352;48.446;9.156;2023-08-30T07:48:11;94687.44;;;19.00;86.01
2685;BME280;1352;48.446;9.156;2023-08-30T07:50:37;94693.94;;;19.04;81.48
2685;BME280;1352;48.446;9.156;2023-08-30T07:53:04;94683.16;;;18.99;85.48
2685;BME280;1352;48.446;9.156;2023-08-30T07:55:31;94688.25;;;19.14;85.32
2685;BME280;1352;48.446;9.156;2023-08-30T07:57:58;94680.50;;;19.25;81.82
2685;BME280;1352;48.446;9.156;2023-08-30T08:00:25;94686.81;;;19.11;83.38
2685;BME280;1352;48.446;9.156;2023-08-30T08:02:53;94692.91;;;19.18;82.48
2685;BME280;1352;48.446;9.156;2023-08-30T08:05:20;94691.72;;;19.14;79.46
2685;BME280;1352;48.446;9.156;2023-08-30T08:07:52;94691.31;;;19.24;80.20
2685;BME280;1352;48.446;9.156;2023-08-30T08:10:19;94684.78;;;19.20;92.10
2685;BME280;1352;48.446;9.156;2023-08-30T08:12:46;94688.03;;;19.28;91.43
2685;BME280;1352;48.446;9.156;2023-08-30T08:15:13;94684.78;;;18.87;85.57
2685;BME280;1352;48.446;9.156;2023-08-30T08:17:40;94687.22;;;18.95;92.80
2685;BME280;1352;48.446;9.156;2023-08-30T08:20:08;94694.53;;;18.93;92.31
2685;BME280;1352;48.446;9.156;2023-08-30T08:22:35;94695.34;;;19.07;87.20
2685;BME280;1352;48.446;9.156;2023-08-30T08:25:02;94690.06;;;18.87;89.41
2685;BME280;1352;48.446;9.156;2023-08-30T08:27:29;94692.72;;;18.93;86.42
2685;BME280;1352;48.446;9.156;2023-08-30T08:29:56;94695.78;;;19.10;86.44
2685;BME280;1352;48.446;9.156;2023-08-30T08:32:23;94693.34;;;19.22;86.69
2685;BME280;1352;48.446;9.156;2023-08-30T08:34:50;94694.75;;;18.98;89.71
2685;BME280;1352;48.446;9.156;2023-08-30T08:37:18;94686.59;;;19.00;90.73
2685;BME280;1352;48.446;9.156;2023-08-30T08:39:45;94686.59;;;19.00;82.08
2685;BME280;1352;48.446;9.156;2023-08-30T08:42:13;94685.41;;;19.15;88.69
2685;BME280;1352;48.446;9.156;2023-08-30T08:44:40;94688.84;;;19.22;87.98
2685;BME280;1352;48.446;9.156;2023-08-30T08:47:08;94687.84;;;19.30;84.03
2685;BME280;1352;48.446;9.156;2023-08-30T08:49:35;94690.88;;;19.27;85.25
2685;BME280;1352;48.446;9.156;2023-08-30T08:52:02;94681.13;;;19.08;84.39
2685;BME280;1352;48.446;9.156;2023-08-30T08:54:32;94680.72;;;19.11;85.01
2685;BME280;1352;48.446;9.156;2023-08-30T08:56:59;94686.19;;;19.29;85.63
2685;BME280;1352;48.446;9.156;2023-08-30T08:59:26;94691.31;;;19.24;84.02
2685;BME280;1352;48.446;9.156;2023-08-30T09:01:52;94687.63;;;19.38;85.88
2685;BME280;1352;48.446;9.156;2023-08-30T09:04:19;94692.91;;;19.64;80.43
2685;BME280;1352;48.446;9.156;2023-08-30T09:06:46;94692.28;;;19.69;76.81
2685;BME280;1352;48.446;9.156;2023-08-30T09:09:14;94693.91;;;19.70;81.37
2685;BME280;1352;48.446;9.156;2023-08-30T09:11:42;94690.25;;;19.64;79.92
2685;BME280;1352;48.446;9.156;2023-08-30T09:14:09;94682.50;;;19.76;79.80
2685;BME280;1352;48.446;9.156;2023-08-30T09:16:36;94682.47;;;19.83;77.40
2685;BME280;1352;48.446;9.156;2023-08-30T09:19:03;94686.59;;;19.65;78.11
2685;BME280;1352;48.446;9.156;2023-08-30T09:21:30;94692.03;;;19.84;75.41
2685;BME280;1352;48.446;9.156;2023-08-30T09:23:58;94688.53;;;19.96;82.71
2685;BME280;1352;48.446;9.156;2023-08-30T09:26:25;94687.25;;;20.12;76.20
2685;BME280;1352;48.446;9.156;2023-08-30T09:28:55;94678.50;;;20.18;72.05
2685;BME280;1352;48.446;9.156;2023-08-30T09:31:22;94677.63;;;20.24;71.32
2685;BME280;1352;48.446;9.156;2023-08-30T09:33:48;94680.78;;;20.01;76.41
2685;BME280;1352;48.446;9.156;2023-08-30T09:36:16;94690.53;;;20.14;76.96
2685;BME280;1352;48.446;9.156;2023-08-30T09:38:47;94684.59;;;20.12;72.30
2685;BME280;1352;48.446;9.156;2023-08-30T09:41:14;94676.75;;;19.86;70.03
2685;BME280;1352;48.446;9.156;2023-08-30T09:43:42;94677.69;;;20.18;76.22
2685;BME280;1352;48.446;9.156;2023-08-30T09:46:11;94672.13;;;20.26;75.76
2685;BME280;1352;48.446;9.156;2023-08-30T09:48:38;94669.53;;;20.19;80.31
2685;BME280;1352;48.446;9.156;2023-08-30T09:51:06;94668.03;;;20.30;75.77
2685;BME280;1352;48.446;9.156;2023-08-30T09:53:36;94669.84;;;20.29;73.04
2685;BME280;1352;48.446;9.156;2023-08-30T09:56:04;94672.69;;;20.48;75.13
2685;BME280;1352;48.446;9.156;2023-08-30T09:58:33;94668.50;;;20.58;72.88
2685;BME280;1352;48.446;9.156;2023-08-30T10:01:00;94669.22;;;20.47;69.29
2685;BME280;1352;48.446;9.156;2023-08-30T10:03:29;94670.59;;;20.50;69.68
2685;BME280;1352;48.446;9.156;2023-08-30T10:05:57;94668.56;;;20.52;68.89
2685;BME280;1352;48.446;9.156;2023-08-30T10:08:26;94667.53;;;20.53;67.19
2685;BME280;1352;48.446;9.156;2023-08-30T10:10:56;94661.56;;;20.64;67.23
2685;BME280;1352;48.446;9.156;2023-08-30T10:13:25;94664.22;;;20.89;70.40
2685;BME280;1352;48.446;9.156;2023-08-30T10:15:53;94661.38;;;20.90;71.34
2685;BME280;1352;48.446;9.156;2023-08-30T10:18:23;94659.66;;;21.02;68.78
2685;BME280;1352;48.446;9.156;2023-08-30T10:20:55;94662.09;;;21.04;62.86
2685;BME280;1352;48.446;9.156;2023-08-30T10:23:21;94656.41;;;20.69;62.87
2685;BME280;1352;48.446;9.156;2023-08-30T10:25:49;94649.88;;;20.40;70.60
2685;BME280;1352;48.446;9.156;2023-08-30T10:28:17;94645.59;;;20.70;77.43
2685;BME280;1352;48.446;9.156;2023-08-30T10:30:46;94644.66;;;20.90;71.01
2685;BME280;1352;48.446;9.156;2023-08-30T10:33:13;94646.69;;;20.63;69.99
2685;BME280;1352;48.446;9.156;2023-08-30T10:35:46;94647.16;;;20.78;68.81
2685;BME280;1352;48.446;9.156;2023-08-30T10:38:23;94649.25;;;20.45;66.64
2685;BME280;1352;48.446;9.156;2023-08-30T10:40:50;94646.38;;;19.95;69.52
2685;BME280;1352;48.446;9.156;2023-08-30T10:43:27;94645.69;;;19.61;72.07
2685;BME280;1352;48.446;9.156;2023-08-30T10:45:58;94642.38;;;19.73;78.00
2685;BME280;1352;48.446;9.156;2023-08-30T10:48:33;94647.75;;;19.33;72.43
2685;BME280;1352;48.446;9.156;2023-08-30T10:51:00;94636.97;;;19.48;74.74
2685;BME280;1352;48.446;9.156;2023-08-30T10:53:31;94642.84;;;19.43;75.93
2685;BME280;1352;48.446;9.156;2023-08-30T10:56:07;94639.84;;;19.00;73.16
2685;BME280;1352;48.446;9.156;2023-08-30T10:58:40;94641.25;;;19.03;82.03
2685;BME280;1352;48.446;9.156;2023-08-30T11:01:07;94632.06;;;19.58;80.96
2685;BME280;1352;48.446;9.156;2023-08-30T11:03:36;94637.00;;;19.99;72.77
2685;BME280;1352;48.446;9.156;2023-08-30T11:06:02;94634.22;;;20.25;72.55
2685;BME280;1352;48.446;9.156;2023-08-30T11:08:31;94634.97;;;20.46;67.37
2685;BME280;1352;48.446;9.156;2023-08-30T11:11:02;94631.13;;;20.98;72.74
2685;BME280;1352;48.446;9.156;2023-08-30T11:13:30;94625.25;;;21.14;66.40
2685;BME280;1352;48.446;9.156;2023-08-30T11:15:59;94622.31;;;21.29;67.28
2685;BME280;1352;48.446;9.156;2023-08-30T11:18:26;94619.22;;;21.32;62.70
2685;BME280;1352;48.446;9.156;2023-08-30T11:20:54;94628.53;;;20.60;65.34
2685;BME280;1352;48.446;9.156;2023-08-30T11:23:24;94627.72;;;20.59;72.22
2685;BME280;1352;48.446;9.156;2023-08-30T11:25:52;94615.34;;;20.78;68.81
2685;BME280;1352;48.446;9.156;2023-08-30T11:28:22;94625.41;;;20.69;66.80
2685;BME280;1352;48.446;9.156;2023-08-30T11:30:50;94620.09;;;20.76;67.56
2685;BME280;1352;48.446;9.156;2023-08-30T11:33:17;94625.22;;;20.96;67.27
2685;BME280;1352;48.446;9.156;2023-08-30T11:35:44;94611.84;;;21.34;63.19
2685;BME280;1352;48.446;9.156;2023-08-30T11:38:12;94618.06;;;21.64;59.28
2685;BME280;1352;48.446;9.156;2023-08-30T11:40:39;94621.63;;;21.58;58.83
2685;BME280;1352;48.446;9.156;2023-08-30T11:43:08;94618.06;;;21.82;65.23
2685;BME280;1352;48.446;9.156;2023-08-30T11:45:36;94607.66;;;21.99;62.58
2685;BME280;1352;48.446;9.156;2023-08-30T11:48:03;94606.78;;;21.87;54.90
2685;BME280;1352;48.446;9.156;2023-08-30T11:50:30;94619.16;;;21.75;57.11
2685;BME280;1352;48.446;9.156;2023-08-30T11:52:57;94622.81;;;21.99;59.45
2685;BME280;1352;48.446;9.156;2023-08-30T11:55:24;94610.59;;;22.09;56.59
2685;BME280;1352;48.446;9.156;2023-08-30T11:57:51;94614.53;;;22.07;55.20
2685;BME280;1352;48.446;9.156;2023-08-30T12:00:20;94618.53;;;21.18;61.57
2685;BME280;1352;48.446;9.156;2023-08-30T12:02:47;94621.63;;;21.33;60.04
2685;BME280;1352;48.446;9.156;2023-08-30T12:05:14;94612.13;;;21.26;60.83
2685;BME280;1352;48.446;9.156;2023-08-30T12:07:41;94612.59;;;21.16;59.85
2685;BME280;1352;48.446;9.156;2023-08-30T12:10:08;94611.69;;;21.04;63.87
2685;BME280;1352;48.446;9.156;2023-08-30T12:12:35;94617.19;;;20.77;59.87
2685;BME280;1352;48.446;9.156;2023-08-30T12:15:07;94615.22;;;20.73;68.50
2685;BME280;1352;48.446;9.156;2023-08-30T12:17:35;94617.38;;;21.07;64.42
2685;BME280;1352;48.446;9.156;2023-08-30T12:20:03;94620.75;;;21.21;64.52
2685;BME280;1352;48.446;9.156;2023-08-30T12:22:39;94618.25;;;21.26;63.59
2685;BME280;1352;48.446;9.156;2023-08-30T12:25:15;94620.69;;;21.28;64.02
2685;BME280;1352;48.446;9.156;2023-08-30T12:27:42;94619.69;;;21.47;61.09
2685;BME280;1352;48.446;9.156;2023-08-30T12:30:09;94613.56;;;21.46;62.81
2685;BME280;1352;48.446;9.156;2023-08-30T12:32:37;94611.78;;;21.40;65.75
2685;BME280;1352;48.446;9.156;2023-08-30T12:35:05;94611.84;;;21.52;62.94
2685;BME280;1352;48.446;9.156;2023-08-30T12:37:31;94610.31;;;21.44;67.37
2685;BME280;1352;48.446;9.156;2023-08-30T12:39:58;94612.22;;;21.56;67.19
2685;BME280;1352;48.446;9.156;2023-08-30T12:42:25;94608.63;;;21.68;67.52
2685;BME280;1352;48.446;9.156;2023-08-30T12:44:52;94602.56;;;21.61;71.90
2685;BME280;1352;48.446;9.156;2023-08-30T12:47:19;94604.47;;;21.90;69.71
2685;BME280;1352;48.446;9.156;2023-08-30T12:49:48;94598.72;;;21.94;64.05
2685;BME280;1352;48.446;9.156;2023-08-30T12:52:14;94602.03;;;22.25;64.49
2685;BME280;1352;48.446;9.156;2023-08-30T12:54:41;94603.22;;;22.11;58.53
2685;BME280;1352;48.446;9.156;2023-08-30T12:57:08;94597.47;;;22.14;55.81
2685;BME280;1352;48.446;9.156;2023-08-30T12:59:35;94591.56;;;22.12;58.32
2685;BME280;1352;48.446;9.156;2023-08-30T13:02:02;94594.16;;;22.01;58.36
2685;BME280;1352;48.446;9.156;2023-08-30T13:04:29;94598.72;;;21.94;59.98
2685;BME280;1352;48.446;9.156;2023-08-30T13:06:57;94591.13;;;21.97;59.72
2685;BME280;1352;48.446;9.156;2023-08-30T13:09:24;94589.81;;;21.88;62.33
2685;BME280;1352;48.446;9.156;2023-08-30T13:11:51;94582.72;;;22.00;57.97
2685;BME280;1352;48.446;9.156;2023-08-30T13:14:18;94589.31;;;21.98;56.22
2685;BME280;1352;48.446;9.156;2023-08-30T13:16:44;94581.91;;;22.00;56.98